createdAt,value
2019-01-04T00:00:05.426Z,1029.72
2019-01-04T00:01:05.421Z,1029.65
2019-01-04T00:02:05.409Z,1029.72
2019-01-04T00:03:05.393Z,1029.71
2019-01-04T00:04:05.384Z,1029.66
2019-01-04T00:05:05.441Z,1029.66
2019-01-04T00:06:05.370Z,1029.60
2019-01-04T00:07:05.350Z,1029.71
2019-01-04T00:08:05.456Z,1029.65
2019-01-04T00:09:05.771Z,1029.66
2019-01-04T00:10:05.316Z,1029.61
2019-01-04T00:11:05.413Z,1029.56
2019-01-04T00:12:05.299Z,1029.60
2019-01-04T00:13:05.282Z,1029.53
2019-01-04T00:14:05.315Z,1029.56
2019-01-04T00:15:05.261Z,1029.53
2019-01-04T00:16:05.256Z,1029.58
2019-01-04T00:17:05.239Z,1029.45
2019-01-04T00:18:05.227Z,1029.50
2019-01-04T00:19:05.216Z,1029.47
2019-01-04T00:21:05.194Z,1029.50
2019-01-04T00:22:05.184Z,1029.52
2019-01-04T00:23:05.176Z,1029.56
2019-01-04T00:24:05.165Z,1029.53
2019-01-04T00:25:05.158Z,1029.53
2019-01-04T00:26:05.154Z,1029.56
2019-01-04T00:27:05.137Z,1029.52
2019-01-04T00:28:05.124Z,1029.51
2019-01-04T00:29:05.105Z,1029.53
2019-01-04T00:30:05.097Z,1029.50
2019-01-04T00:31:05.087Z,1029.49
2019-01-04T00:32:05.072Z,1029.52
2019-01-04T00:33:05.062Z,1029.49
2019-01-04T00:34:05.057Z,1029.58
2019-01-04T00:35:05.039Z,1029.54
2019-01-04T00:36:05.035Z,1029.52
2019-01-04T00:37:05.017Z,1029.49
2019-01-04T00:38:05.007Z,1029.53
2019-01-04T00:39:04.997Z,1029.59
2019-01-04T00:40:04.989Z,1029.54
2019-01-04T00:41:04.975Z,1029.53
2019-01-04T00:42:04.962Z,1029.62
2019-01-04T00:43:04.954Z,1029.60
2019-01-04T00:44:04.940Z,1029.53
2019-01-04T00:45:04.930Z,1029.58
2019-01-04T00:46:04.918Z,1029.59
2019-01-04T00:47:04.912Z,1029.50
2019-01-04T00:48:04.897Z,1029.50
2019-01-04T00:49:04.885Z,1029.49
2019-01-04T00:50:04.876Z,1029.46
2019-01-04T00:51:04.863Z,1029.45
2019-01-04T00:52:04.858Z,1029.41
2019-01-04T00:53:04.845Z,1029.41
2019-01-04T00:54:04.839Z,1029.39
2019-01-04T00:55:04.823Z,1029.39
2019-01-04T00:56:04.814Z,1029.37
2019-01-04T00:57:04.802Z,1029.43
2019-01-04T00:59:04.786Z,1029.36
2019-01-04T01:00:04.774Z,1029.35
2019-01-04T01:02:04.747Z,1029.37
2019-01-04T01:03:04.735Z,1029.41
2019-01-04T01:04:04.720Z,1029.40
2019-01-04T01:05:04.711Z,1029.42
2019-01-04T01:06:04.699Z,1029.41
2019-01-04T01:07:04.687Z,1029.43
2019-01-04T01:08:04.676Z,1029.38
2019-01-04T01:09:04.665Z,1029.40
2019-01-04T01:10:04.654Z,1029.43
2019-01-04T01:11:04.643Z,1029.45
2019-01-04T01:12:04.633Z,1029.46
2019-01-04T01:13:04.627Z,1029.47
2019-01-04T01:14:04.610Z,1029.51
2019-01-04T01:15:04.598Z,1029.49
2019-01-04T01:16:04.587Z,1029.51
2019-01-04T01:17:04.576Z,1029.49
2019-01-04T01:18:04.571Z,1029.51
2019-01-04T01:19:04.564Z,1029.49
2019-01-04T01:20:04.543Z,1029.47
2019-01-04T01:21:04.539Z,1029.45
2019-01-04T01:22:04.526Z,1029.49
2019-01-04T01:23:04.510Z,1029.48
2019-01-04T01:24:04.503Z,1029.43
2019-01-04T01:25:04.488Z,1029.48
2019-01-04T01:26:04.483Z,1029.47
2019-01-04T01:27:04.475Z,1029.50
2019-01-04T01:28:04.463Z,1029.57
2019-01-04T01:29:04.446Z,1029.47
2019-01-04T01:30:04.434Z,1029.48
2019-01-04T01:31:04.429Z,1029.47
2019-01-04T01:32:04.412Z,1029.48
2019-01-04T01:33:04.400Z,1029.56
2019-01-04T01:34:04.397Z,1029.50
2019-01-04T01:35:04.385Z,1029.47
2019-01-04T01:36:04.369Z,1029.49
2019-01-04T01:37:04.360Z,1029.52
2019-01-04T01:38:04.346Z,1029.43
2019-01-04T01:39:04.335Z,1029.47
2019-01-04T01:40:04.326Z,1029.43
2019-01-04T01:41:04.313Z,1029.42
2019-01-04T01:42:04.302Z,1029.33
2019-01-04T01:43:04.292Z,1029.30
2019-01-04T01:44:04.284Z,1029.21
2019-01-04T01:45:04.270Z,1029.26
2019-01-04T01:46:04.263Z,1029.22
2019-01-04T01:47:04.250Z,1029.25
2019-01-04T01:48:04.239Z,1029.21
2019-01-04T01:49:04.234Z,1029.19
2019-01-04T01:50:04.217Z,1029.18
2019-01-04T01:51:04.205Z,1029.20
2019-01-04T01:52:04.197Z,1029.21
2019-01-04T01:53:04.189Z,1029.29
2019-01-04T01:54:04.172Z,1029.23
2019-01-04T01:55:04.169Z,1029.26
2019-01-04T01:56:04.153Z,1029.19
2019-01-04T01:57:04.141Z,1029.25
2019-01-04T01:58:04.133Z,1029.26
2019-01-04T01:59:04.118Z,1029.19
2019-01-04T02:00:04.109Z,1029.23
2019-01-04T02:01:04.099Z,1029.22
2019-01-04T02:02:04.089Z,1029.18
2019-01-04T02:03:04.078Z,1029.19
2019-01-04T02:04:04.068Z,1029.17
2019-01-04T02:05:04.055Z,1029.17
2019-01-04T02:06:04.043Z,1029.13
2019-01-04T02:07:04.029Z,1029.24
2019-01-04T02:08:04.020Z,1029.21
2019-01-04T02:09:07.314Z,1029.21
2019-01-04T02:10:03.999Z,1029.14
2019-01-04T02:11:03.986Z,1029.18
2019-01-04T02:12:03.997Z,1029.08
2019-01-04T02:13:03.964Z,1029.08
2019-01-04T02:14:03.954Z,1029.16
2019-01-04T02:15:03.944Z,1029.15
2019-01-04T02:16:03.933Z,1029.06
2019-01-04T02:17:03.923Z,1029.09
2019-01-04T02:18:03.912Z,1029.02
2019-01-04T02:19:03.907Z,1028.98
2019-01-04T02:20:03.889Z,1028.96
2019-01-04T02:21:03.878Z,1028.89
2019-01-04T02:22:03.868Z,1028.88
2019-01-04T02:23:03.856Z,1028.90
2019-01-04T02:24:03.848Z,1028.86
2019-01-04T02:25:03.837Z,1028.86
2019-01-04T02:26:03.832Z,1028.83
2019-01-04T02:27:03.815Z,1028.80
2019-01-04T02:28:03.802Z,1028.79
2019-01-04T02:29:03.793Z,1028.81
2019-01-04T02:30:03.779Z,1028.83
2019-01-04T02:31:03.774Z,1028.80
2019-01-04T02:32:03.757Z,1028.81
2019-01-04T02:33:03.749Z,1028.86
2019-01-04T02:34:03.734Z,1028.84
2019-01-04T02:35:03.724Z,1028.84
2019-01-04T02:36:03.719Z,1028.78
2019-01-04T02:37:03.727Z,1028.83
2019-01-04T02:38:03.728Z,1028.80
2019-01-04T02:39:03.738Z,1028.80
2019-01-04T02:40:03.679Z,1028.75
2019-01-04T02:41:03.669Z,1028.76
2019-01-04T02:42:03.676Z,1028.76
2019-01-04T02:43:03.679Z,1028.68
2019-01-04T02:44:03.685Z,1028.68
2019-01-04T02:45:03.619Z,1028.71
2019-01-04T02:46:03.613Z,1028.65
2019-01-04T02:47:03.604Z,1028.66
2019-01-04T02:48:03.588Z,1028.63
2019-01-04T02:49:03.572Z,1028.49
2019-01-04T02:50:03.567Z,1028.53
2019-01-04T02:51:03.554Z,1028.48
2019-01-04T02:52:03.538Z,1028.42
2019-01-04T02:53:03.532Z,1028.42
2019-01-04T02:54:03.520Z,1028.42
2019-01-04T02:55:03.513Z,1028.41
2019-01-04T02:56:03.496Z,1028.47
2019-01-04T02:57:03.483Z,1028.43
2019-01-04T02:58:03.483Z,1028.44
2019-01-04T02:59:03.467Z,1028.44
2019-01-04T03:00:03.460Z,1028.43
2019-01-04T03:01:03.445Z,1028.47
2019-01-04T03:02:03.432Z,1028.43
2019-01-04T03:03:03.420Z,1028.45
2019-01-04T03:04:03.410Z,1028.48
2019-01-04T03:05:03.398Z,1028.38
2019-01-04T03:06:03.388Z,1028.33
2019-01-04T03:07:03.376Z,1028.37
2019-01-04T03:08:03.366Z,1028.39
2019-01-04T03:09:03.353Z,1028.39
2019-01-04T03:10:03.363Z,1028.39
2019-01-04T03:11:03.334Z,1028.38
2019-01-04T03:12:03.323Z,1028.30
2019-01-04T03:13:03.315Z,1028.35
2019-01-04T03:14:03.299Z,1028.31
2019-01-04T03:15:03.287Z,1028.30
2019-01-04T03:16:03.276Z,1028.23
2019-01-04T03:17:03.264Z,1028.25
2019-01-04T03:18:03.255Z,1028.23
2019-01-04T03:19:03.246Z,1028.26
2019-01-04T03:20:03.239Z,1028.21
2019-01-04T03:21:03.223Z,1028.23
2019-01-04T03:22:03.221Z,1028.16
2019-01-04T03:23:03.199Z,1028.11
2019-01-04T03:24:03.191Z,1028.10
2019-01-04T03:25:03.182Z,1028.08
2019-01-04T03:26:03.167Z,1028.06
2019-01-04T03:27:03.158Z,1028.08
2019-01-04T03:28:03.149Z,1028.01
2019-01-04T03:29:03.139Z,1027.98
2019-01-04T03:30:03.158Z,1028.02
2019-01-04T03:31:03.116Z,1027.98
2019-01-04T03:32:03.107Z,1027.99
2019-01-04T03:33:03.095Z,1027.99
2019-01-04T03:34:03.083Z,1027.94
2019-01-04T03:35:03.070Z,1027.90
2019-01-04T03:36:03.059Z,1027.92
2019-01-04T03:37:03.055Z,1027.95
2019-01-04T03:38:03.037Z,1027.91
2019-01-04T03:39:03.025Z,1027.85
2019-01-04T03:40:03.021Z,1027.88
2019-01-04T03:41:03.003Z,1027.88
2019-01-04T03:42:02.995Z,1027.89
2019-01-04T03:43:02.988Z,1027.88
2019-01-04T03:44:02.969Z,1027.85
2019-01-04T03:45:02.961Z,1027.78
2019-01-04T03:46:02.949Z,1027.74
2019-01-04T03:47:02.943Z,1027.73
2019-01-04T03:48:02.933Z,1027.71
2019-01-04T03:49:02.916Z,1027.64
2019-01-04T03:50:02.943Z,1027.65
2019-01-04T03:51:02.896Z,1027.57
2019-01-04T03:52:02.884Z,1027.53
2019-01-04T03:53:02.871Z,1027.53
2019-01-04T03:54:02.866Z,1027.54
2019-01-04T03:55:02.851Z,1027.52
2019-01-04T03:56:02.842Z,1027.46
2019-01-04T03:57:02.828Z,1027.48
2019-01-04T03:58:02.817Z,1027.43
2019-01-04T03:59:02.807Z,1027.43
2019-01-04T04:00:02.797Z,1027.33
2019-01-04T04:01:02.785Z,1027.44
2019-01-04T04:02:02.775Z,1027.43
2019-01-04T04:03:02.764Z,1027.36
2019-01-04T04:04:02.753Z,1027.37
2019-01-04T04:05:02.748Z,1027.41
2019-01-04T04:06:02.736Z,1027.38
2019-01-04T04:07:02.723Z,1027.33
2019-01-04T04:08:02.714Z,1027.35
2019-01-04T04:09:02.697Z,1027.34
2019-01-04T04:10:02.692Z,1027.32
2019-01-04T04:11:02.680Z,1027.34
2019-01-04T04:12:02.667Z,1027.28
2019-01-04T04:13:02.663Z,1027.29
2019-01-04T04:14:02.646Z,1027.32
2019-01-04T04:15:02.635Z,1027.25
2019-01-04T04:16:02.626Z,1027.26
2019-01-04T04:17:02.610Z,1027.22
2019-01-04T04:18:02.601Z,1027.21
2019-01-04T04:19:02.591Z,1027.14
2019-01-04T04:20:02.579Z,1027.20
2019-01-04T04:21:02.578Z,1027.15
2019-01-04T04:22:02.556Z,1027.14
2019-01-04T04:23:02.551Z,1027.12
2019-01-04T04:24:02.534Z,1027.12
2019-01-04T04:25:02.531Z,1027.15
2019-01-04T04:26:02.511Z,1027.12
2019-01-04T04:27:02.503Z,1027.12
2019-01-04T04:28:02.495Z,1027.07
2019-01-04T04:29:02.481Z,1027.09
2019-01-04T04:30:02.468Z,1027.12
2019-01-04T04:31:02.456Z,1027.17
2019-01-04T04:32:02.447Z,1027.20
2019-01-04T04:33:02.439Z,1027.23
2019-01-04T04:34:02.424Z,1027.23
2019-01-04T04:35:02.422Z,1027.22
2019-01-04T04:36:02.410Z,1027.20
2019-01-04T04:37:02.399Z,1027.23
2019-01-04T04:38:02.380Z,1027.22
2019-01-04T04:39:02.369Z,1027.17
2019-01-04T04:40:02.365Z,1027.20
2019-01-04T04:41:02.349Z,1027.15
2019-01-04T04:42:02.339Z,1027.14
2019-01-04T04:43:02.332Z,1027.10
2019-01-04T04:44:02.316Z,1027.04
2019-01-04T04:45:02.305Z,1027.06
2019-01-04T04:46:02.296Z,1027.04
2019-01-04T04:47:02.286Z,1027.06
2019-01-04T04:48:02.272Z,1027.03
2019-01-04T04:49:02.259Z,1027.08
2019-01-04T04:50:02.259Z,1027.02
2019-01-04T04:51:02.238Z,1027.08
2019-01-04T04:52:02.228Z,1027.04
2019-01-04T04:53:02.216Z,1027.09
2019-01-04T04:54:02.211Z,1027.04
2019-01-04T04:55:02.196Z,1027.04
2019-01-04T04:56:02.182Z,1027.07
2019-01-04T04:57:02.176Z,1027.07
2019-01-04T04:58:02.164Z,1027.01
2019-01-04T04:59:02.151Z,1027.00
2019-01-04T05:00:02.154Z,1027.00
2019-01-04T05:01:02.131Z,1026.97
2019-01-04T05:02:02.119Z,1026.96
2019-01-04T05:03:02.108Z,1026.97
2019-01-04T05:04:02.102Z,1026.94
2019-01-04T05:05:02.089Z,1026.96
2019-01-04T05:06:02.075Z,1026.99
2019-01-04T05:07:02.069Z,1026.98
2019-01-04T05:08:02.054Z,1026.91
2019-01-04T05:09:02.040Z,1026.85
2019-01-04T05:10:02.030Z,1026.88
2019-01-04T05:11:02.024Z,1026.91
2019-01-04T05:12:02.010Z,1026.88
2019-01-04T05:13:02.000Z,1026.91
2019-01-04T05:14:01.992Z,1026.85
2019-01-04T05:15:01.976Z,1026.82
2019-01-04T05:16:01.964Z,1026.88
2019-01-04T05:17:01.954Z,1026.84
2019-01-04T05:18:01.942Z,1026.84
2019-01-04T05:19:01.933Z,1026.89
2019-01-04T05:20:01.939Z,1026.87
2019-01-04T05:21:01.914Z,1026.91
2019-01-04T05:22:01.902Z,1026.91
2019-01-04T05:23:01.889Z,1026.83
2019-01-04T05:24:01.892Z,1026.91
2019-01-04T05:25:01.872Z,1026.90
2019-01-04T05:26:01.857Z,1026.92
2019-01-04T05:27:01.844Z,1026.90
2019-01-04T05:28:01.839Z,1026.91
2019-01-04T05:29:01.825Z,1026.92
2019-01-04T05:30:01.812Z,1026.90
2019-01-04T05:31:01.805Z,1026.91
2019-01-04T05:32:01.794Z,1026.92
2019-01-04T05:33:01.780Z,1026.95
2019-01-04T05:34:01.773Z,1026.91
2019-01-04T05:35:01.772Z,1026.90
2019-01-04T05:36:01.754Z,1026.84
2019-01-04T05:37:01.734Z,1026.74
2019-01-04T05:38:01.728Z,1026.69
2019-01-04T05:39:01.720Z,1026.68
2019-01-04T05:40:01.704Z,1026.65
2019-01-04T05:41:01.693Z,1026.56
2019-01-04T05:42:01.688Z,1026.54
2019-01-04T05:43:01.678Z,1026.49
2019-01-04T05:44:01.659Z,1026.50
2019-01-04T05:45:01.652Z,1026.51
2019-01-04T05:46:01.637Z,1026.45
2019-01-04T05:47:01.627Z,1026.47
2019-01-04T05:48:01.615Z,1026.50
2019-01-04T05:49:01.605Z,1026.51
2019-01-04T05:50:01.597Z,1026.52
2019-01-04T05:51:01.582Z,1026.51
2019-01-04T05:52:01.576Z,1026.45
2019-01-04T05:53:01.561Z,1026.44
2019-01-04T05:54:01.550Z,1026.39
2019-01-04T05:55:01.546Z,1026.45
2019-01-04T05:56:01.537Z,1026.39
2019-01-04T05:57:01.516Z,1026.38
2019-01-04T05:58:01.507Z,1026.32
2019-01-04T05:59:01.497Z,1026.38
2019-01-04T06:00:01.492Z,1026.39
2019-01-04T06:01:01.475Z,1026.32
2019-01-04T06:02:01.469Z,1026.29
2019-01-04T06:03:01.452Z,1026.34
2019-01-04T06:04:01.440Z,1026.38
2019-01-04T06:05:01.433Z,1026.33
2019-01-04T06:06:01.419Z,1026.42
2019-01-04T06:07:01.426Z,1026.42
2019-01-04T06:08:01.396Z,1026.46
2019-01-04T06:09:01.390Z,1026.49
2019-01-04T06:10:01.377Z,1026.41
2019-01-04T06:11:01.366Z,1026.46
2019-01-04T06:12:01.361Z,1026.46
2019-01-04T06:13:01.344Z,1026.44
2019-01-04T06:14:01.331Z,1026.43
2019-01-04T06:15:01.324Z,1026.43
2019-01-04T06:16:01.314Z,1026.39
2019-01-04T06:17:01.303Z,1026.30
2019-01-04T06:18:01.290Z,1026.33
2019-01-04T06:19:01.277Z,1026.31
2019-01-04T06:20:01.274Z,1026.22
2019-01-04T06:21:01.253Z,1026.26
2019-01-04T06:22:01.251Z,1026.19
2019-01-04T06:23:01.237Z,1026.21
2019-01-04T06:24:01.221Z,1026.11
2019-01-04T06:25:01.212Z,1026.09
2019-01-04T06:26:01.200Z,1026.10
2019-01-04T06:27:01.193Z,1026.08
2019-01-04T06:28:01.182Z,1026.09
2019-01-04T06:29:01.168Z,1026.12
2019-01-04T06:30:01.158Z,1026.10
2019-01-04T06:31:01.153Z,1026.12
2019-01-04T06:32:01.135Z,1026.08
2019-01-04T06:33:01.127Z,1026.13
2019-01-04T06:34:01.113Z,1026.15
2019-01-04T06:35:01.111Z,1026.18
2019-01-04T06:36:01.091Z,1026.13
2019-01-04T06:37:01.084Z,1026.15
2019-01-04T06:38:01.070Z,1026.15
2019-01-04T06:39:01.058Z,1026.10
2019-01-04T06:40:01.055Z,1026.12
2019-01-04T06:41:01.037Z,1026.07
2019-01-04T06:42:01.033Z,1026.03
2019-01-04T06:43:01.016Z,1026.06
2019-01-04T06:44:01.007Z,1026.06
2019-01-04T06:45:00.992Z,1026.02
2019-01-04T06:46:00.984Z,1026.05
2019-01-04T06:47:00.970Z,1026.07
2019-01-04T06:48:00.963Z,1026.00
2019-01-04T06:49:00.949Z,1025.99
2019-01-04T06:50:00.941Z,1025.99
2019-01-04T06:51:00.932Z,1025.88
2019-01-04T06:52:00.916Z,1025.84
2019-01-04T06:53:00.905Z,1025.88
2019-01-04T06:54:00.893Z,1025.84
2019-01-04T06:55:00.900Z,1025.84
2019-01-04T06:56:00.870Z,1025.84
2019-01-04T06:57:00.860Z,1025.90
2019-01-04T06:58:00.854Z,1025.86
2019-01-04T06:59:00.842Z,1025.89
2019-01-04T07:00:00.876Z,1025.90
2019-01-04T07:01:00.817Z,1025.86
2019-01-04T07:02:00.807Z,1025.83
2019-01-04T07:03:00.799Z,1025.92
2019-01-04T07:04:00.785Z,1025.83
2019-01-04T07:05:00.773Z,1025.84
2019-01-04T07:06:00.763Z,1025.84
2019-01-04T07:07:00.751Z,1025.87
2019-01-04T07:08:00.740Z,1025.90
2019-01-04T07:09:00.733Z,1025.93
2019-01-04T07:10:00.722Z,1025.90
2019-01-04T07:11:00.714Z,1025.91
2019-01-04T07:12:00.699Z,1025.90
2019-01-04T07:13:00.691Z,1025.85
2019-01-04T07:14:00.680Z,1025.91
2019-01-04T07:15:00.731Z,1025.91
2019-01-04T07:16:00.653Z,1025.92
2019-01-04T07:17:00.649Z,1025.88
2019-01-04T07:18:00.635Z,1025.76
2019-01-04T07:19:00.621Z,1025.73
2019-01-04T07:20:00.609Z,1025.65
2019-01-04T07:21:00.599Z,1025.72
2019-01-04T07:22:00.613Z,1025.70
2019-01-04T07:23:00.580Z,1025.66
2019-01-04T07:24:00.569Z,1025.57
2019-01-04T07:25:00.555Z,1025.56
2019-01-04T07:26:00.543Z,1025.56
2019-01-04T07:27:00.539Z,1025.52
2019-01-04T07:28:00.523Z,1025.50
2019-01-04T07:29:00.510Z,1025.57
2019-01-04T07:30:00.506Z,1025.56
2019-01-04T07:31:00.491Z,1025.66
2019-01-04T07:32:00.478Z,1025.57
2019-01-04T07:33:00.475Z,1025.58
2019-01-04T07:34:00.461Z,1025.55
2019-01-04T07:35:00.445Z,1025.62
2019-01-04T07:36:00.442Z,1025.65
2019-01-04T07:37:00.421Z,1025.52
2019-01-04T07:38:00.411Z,1025.60
2019-01-04T07:39:00.403Z,1025.62
2019-01-04T07:40:00.393Z,1025.53
2019-01-04T07:41:01.514Z,1025.63
2019-01-04T07:42:00.383Z,1025.58
2019-01-04T07:43:00.357Z,1025.62
2019-01-04T07:44:00.347Z,1025.62
2019-01-04T07:45:00.341Z,1025.63
2019-01-04T07:46:00.332Z,1025.69
2019-01-04T07:47:00.314Z,1025.57
2019-01-04T07:48:00.306Z,1025.56
2019-01-04T07:49:00.291Z,1025.47
2019-01-04T07:50:00.287Z,1025.46
2019-01-04T07:51:00.278Z,1025.48
2019-01-04T07:52:00.260Z,1025.43
2019-01-04T07:53:00.246Z,1025.50
2019-01-04T07:54:00.237Z,1025.45
2019-01-04T07:55:00.226Z,1025.35
2019-01-04T07:56:00.698Z,1025.43
2019-01-04T07:57:00.204Z,1025.36
2019-01-04T07:58:00.194Z,1025.36
2019-01-04T07:59:00.185Z,1025.33
2019-01-04T08:00:00.172Z,1025.31
2019-01-04T08:01:00.166Z,1025.30
2019-01-04T08:02:00.154Z,1025.32
2019-01-04T08:03:00.138Z,1025.27
2019-01-04T08:04:00.128Z,1025.27
2019-01-04T08:05:00.208Z,1025.24
2019-01-04T08:06:00.106Z,1025.22
2019-01-04T08:07:00.094Z,1025.19
2019-01-04T08:08:00.501Z,1025.25
2019-01-04T08:09:00.079Z,1025.20
2019-01-04T08:10:00.161Z,1025.19
2019-01-04T08:11:00.048Z,1025.24
2019-01-04T08:12:00.035Z,1025.18
2019-01-04T08:13:00.031Z,1025.15
2019-01-04T08:14:00.013Z,1025.08
2019-01-04T08:15:00.003Z,1025.04
2019-01-04T08:15:59.993Z,1025.04
2019-01-04T08:16:59.983Z,1024.98
2019-01-04T08:17:59.972Z,1025.04
2019-01-04T08:18:59.959Z,1025.06
2019-01-04T08:19:59.947Z,1025.02
2019-01-04T08:20:59.936Z,1024.99
2019-01-04T08:21:59.926Z,1025.05
2019-01-04T08:22:59.915Z,1025.05
2019-01-04T08:23:59.904Z,1025.02
2019-01-04T08:24:59.892Z,1024.99
2019-01-04T08:25:59.884Z,1024.97
2019-01-04T08:26:59.893Z,1024.94
2019-01-04T08:27:59.892Z,1024.93
2019-01-04T08:28:59.898Z,1024.93
2019-01-04T08:29:59.838Z,1024.94
2019-01-04T08:30:59.838Z,1025.04
2019-01-04T08:31:59.841Z,1024.94
2019-01-04T08:32:59.846Z,1024.95
2019-01-04T08:33:59.793Z,1024.94
2019-01-04T08:34:59.786Z,1024.95
2019-01-04T08:35:59.770Z,1024.93
2019-01-04T08:36:59.757Z,1024.94
2019-01-04T08:37:59.747Z,1024.90
2019-01-04T08:38:59.738Z,1024.92
2019-01-04T08:39:59.726Z,1024.88
2019-01-04T08:40:59.717Z,1024.89
2019-01-04T08:41:59.703Z,1024.78
2019-01-04T08:42:59.694Z,1024.78
2019-01-04T08:43:59.683Z,1024.80
2019-01-04T08:44:59.677Z,1024.75
2019-01-04T08:45:59.665Z,1024.73
2019-01-04T08:46:59.649Z,1024.72
2019-01-04T08:47:59.639Z,1024.76
2019-01-04T08:48:59.628Z,1024.76
2019-01-04T08:49:59.615Z,1024.79
2019-01-04T08:50:59.605Z,1024.85
2019-01-04T08:51:59.601Z,1024.78
2019-01-04T08:52:59.584Z,1024.83
2019-01-04T08:53:59.571Z,1024.86
2019-01-04T08:54:59.561Z,1024.85
2019-01-04T08:55:59.550Z,1024.85
2019-01-04T08:56:59.537Z,1024.82
2019-01-04T08:57:59.523Z,1024.84
2019-01-04T08:58:59.514Z,1024.77
2019-01-04T08:59:59.506Z,1024.72
2019-01-04T09:00:59.498Z,1024.81
2019-01-04T09:01:59.480Z,1024.71
2019-01-04T09:02:59.471Z,1024.66
2019-01-04T09:03:59.461Z,1024.71
2019-01-04T09:04:59.449Z,1024.55
2019-01-04T09:05:59.436Z,1024.53
2019-01-04T09:06:59.425Z,1024.59
2019-01-04T09:07:59.420Z,1024.55
2019-01-04T09:08:59.413Z,1024.53
2019-01-04T09:09:59.394Z,1024.56
2019-01-04T09:10:59.389Z,1024.40
2019-01-04T09:11:59.371Z,1024.41
2019-01-04T09:12:59.365Z,1024.29
2019-01-04T09:13:59.349Z,1024.41
2019-01-04T09:14:59.338Z,1024.34
2019-01-04T09:15:59.327Z,1024.38
2019-01-04T09:17:00.128Z,1024.22
2019-01-04T09:17:59.302Z,1024.28
2019-01-04T09:18:59.291Z,1024.31
2019-01-04T09:19:59.279Z,1024.28
2019-01-04T09:20:59.275Z,1024.23
2019-01-04T09:21:59.262Z,1024.22
2019-01-04T09:22:59.251Z,1024.21
2019-01-04T09:23:59.238Z,1024.19
2019-01-04T09:24:59.230Z,1024.22
2019-01-04T09:25:59.211Z,1024.31
2019-01-04T09:26:59.202Z,1024.28
2019-01-04T09:27:59.194Z,1024.27
2019-01-04T09:28:59.180Z,1024.24
2019-01-04T09:29:59.167Z,1024.24
2019-01-04T09:30:59.155Z,1024.28
2019-01-04T09:31:59.147Z,1024.29
2019-01-04T09:32:59.133Z,1024.22
2019-01-04T09:33:59.125Z,1024.18
2019-01-04T09:34:59.109Z,1024.13
2019-01-04T09:35:59.099Z,1024.10
2019-01-04T09:36:59.091Z,1024.08
2019-01-04T09:37:59.082Z,1024.04
2019-01-04T09:39:03.307Z,1024.04
2019-01-04T09:39:59.053Z,1024.05
2019-01-04T09:40:59.055Z,1024.00
2019-01-04T09:41:59.030Z,1023.92
2019-01-04T09:42:59.020Z,1023.88
2019-01-04T09:43:59.015Z,1023.95
2019-01-04T09:44:59.004Z,1023.96
2019-01-04T09:45:58.986Z,1023.91
2019-01-04T09:46:58.978Z,1023.91
2019-01-04T09:47:58.962Z,1023.84
2019-01-04T09:48:58.956Z,1023.79
2019-01-04T09:49:58.940Z,1023.73
2019-01-04T09:50:58.930Z,1023.62
2019-01-04T09:51:58.917Z,1023.68
2019-01-04T09:52:58.907Z,1023.69
2019-01-04T09:53:58.900Z,1023.64
2019-01-04T09:54:58.890Z,1023.54
2019-01-04T09:55:58.872Z,1023.57
2019-01-04T09:56:58.865Z,1023.60
2019-01-04T09:57:58.864Z,1023.59
2019-01-04T09:58:58.841Z,1023.65
2019-01-04T09:59:58.831Z,1023.56
2019-01-04T10:00:59.953Z,1023.47
2019-01-04T10:01:58.805Z,1023.58
2019-01-04T10:02:58.797Z,1023.53
2019-01-04T10:03:58.783Z,1023.53
2019-01-04T10:04:58.771Z,1023.47
2019-01-04T10:05:58.762Z,1023.53
2019-01-04T10:06:58.756Z,1023.47
2019-01-04T10:07:58.740Z,1023.40
2019-01-04T10:08:58.739Z,1023.42
2019-01-04T10:09:58.715Z,1023.40
2019-01-04T10:10:58.704Z,1023.32
2019-01-04T10:11:58.691Z,1023.33
2019-01-04T10:12:58.682Z,1023.33
2019-01-04T10:13:58.676Z,1023.31
2019-01-04T10:14:58.670Z,1023.33
2019-01-04T10:15:58.645Z,1023.25
2019-01-04T10:16:58.642Z,1023.25
2019-01-04T10:17:58.630Z,1023.27
2019-01-04T10:18:58.616Z,1023.24
2019-01-04T10:19:58.603Z,1023.14
2019-01-04T10:20:58.597Z,1023.23
2019-01-04T10:21:58.582Z,1023.19
2019-01-04T10:22:58.570Z,1023.22
2019-01-04T10:23:58.557Z,1023.10
2019-01-04T10:24:58.546Z,1023.03
2019-01-04T10:25:58.543Z,1023.05
2019-01-04T10:26:58.522Z,1023.04
2019-01-04T10:27:58.513Z,1023.04
2019-01-04T10:28:58.503Z,1023.02
2019-01-04T10:29:58.496Z,1022.97
2019-01-04T10:30:58.485Z,1022.92
2019-01-04T10:31:58.466Z,1022.95
2019-01-04T10:32:58.459Z,1022.95
2019-01-04T10:33:58.450Z,1022.87
2019-01-04T10:34:58.432Z,1022.79
2019-01-04T10:35:58.425Z,1022.78
2019-01-04T10:36:58.412Z,1022.71
2019-01-04T10:37:58.404Z,1022.67
2019-01-04T10:38:58.392Z,1022.70
2019-01-04T10:39:58.377Z,1022.69
2019-01-04T10:40:58.369Z,1022.71
2019-01-04T10:41:58.354Z,1022.63
2019-01-04T10:42:58.347Z,1022.55
2019-01-04T10:43:58.338Z,1022.54
2019-01-04T10:44:58.326Z,1022.46
2019-01-04T10:45:58.308Z,1022.45
2019-01-04T10:46:58.303Z,1022.30
2019-01-04T10:47:58.289Z,1022.37
2019-01-04T10:48:58.275Z,1022.28
2019-01-04T10:49:58.268Z,1022.23
2019-01-04T10:50:58.259Z,1022.16
2019-01-04T10:51:58.242Z,1022.14
2019-01-04T10:52:58.233Z,1022.14
2019-01-04T10:53:58.219Z,1022.08
2019-01-04T10:54:58.207Z,1022.01
2019-01-04T10:55:58.200Z,1022.03
2019-01-04T10:56:58.186Z,1022.04
2019-01-04T10:57:58.175Z,1021.99
2019-01-04T10:58:58.170Z,1021.97
2019-01-04T10:59:58.156Z,1021.94
2019-01-04T11:00:58.140Z,1021.95
2019-01-04T11:01:58.129Z,1021.88
2019-01-04T11:02:58.119Z,1021.88
2019-01-04T11:03:58.110Z,1021.91
2019-01-04T11:04:58.103Z,1021.85
2019-01-04T11:05:58.087Z,1021.79
2019-01-04T11:06:58.074Z,1021.73
2019-01-04T11:07:58.061Z,1021.72
2019-01-04T11:08:58.058Z,1021.79
2019-01-04T11:09:58.042Z,1021.74
2019-01-04T11:10:58.030Z,1021.72
2019-01-04T11:11:58.019Z,1021.67
2019-01-04T11:12:58.009Z,1021.68
2019-01-04T11:13:57.997Z,1021.66
2019-01-04T11:14:57.986Z,1021.65
2019-01-04T11:15:57.974Z,1021.57
2019-01-04T11:16:58.382Z,1021.60
2019-01-04T11:17:57.956Z,1021.54
2019-01-04T11:18:57.948Z,1021.53
2019-01-04T11:19:57.931Z,1021.45
2019-01-04T11:20:57.920Z,1021.49
2019-01-04T11:21:57.908Z,1021.45
2019-01-04T11:22:57.896Z,1021.50
2019-01-04T11:23:57.885Z,1021.46
2019-01-04T11:24:57.874Z,1021.36
2019-01-04T11:25:57.869Z,1021.37
2019-01-04T11:26:57.858Z,1021.34
2019-01-04T11:27:57.841Z,1021.35
2019-01-04T11:28:57.834Z,1021.30
2019-01-04T11:29:57.819Z,1021.35
2019-01-04T11:30:57.808Z,1021.28
2019-01-04T11:31:57.798Z,1021.31
2019-01-04T11:32:57.784Z,1021.22
2019-01-04T11:33:59.776Z,1021.19
2019-01-04T11:34:57.771Z,1021.13
2019-01-04T11:35:57.758Z,1021.11
2019-01-04T11:36:57.747Z,1021.01
2019-01-04T11:37:57.729Z,1020.96
2019-01-04T11:38:57.719Z,1020.90
2019-01-04T11:39:57.713Z,1020.88
2019-01-04T11:40:57.707Z,1020.82
2019-01-04T11:41:57.688Z,1020.82
2019-01-04T11:42:57.675Z,1020.83
2019-01-04T11:43:57.664Z,1020.70
2019-01-04T11:44:57.654Z,1020.71
2019-01-04T11:45:57.640Z,1020.69
2019-01-04T11:46:57.630Z,1020.60
2019-01-04T11:47:57.619Z,1020.64
2019-01-04T11:48:57.610Z,1020.55
2019-01-04T11:49:57.601Z,1020.49
2019-01-04T11:50:57.585Z,1020.41
2019-01-04T11:51:57.578Z,1020.45
2019-01-04T11:52:57.564Z,1020.47
2019-01-04T11:53:57.557Z,1020.39
2019-01-04T11:54:57.544Z,1020.41
2019-01-04T11:55:57.530Z,1020.44
2019-01-04T11:56:57.518Z,1020.48
2019-01-04T11:57:57.508Z,1020.40
2019-01-04T11:58:57.505Z,1020.38
2019-01-04T11:59:57.488Z,1020.40
2019-01-04T12:00:57.475Z,1020.37
2019-01-04T12:01:57.468Z,1020.37
2019-01-04T12:02:57.453Z,1020.36
2019-01-04T12:03:57.441Z,1020.28
2019-01-04T12:04:57.431Z,1020.23
2019-01-04T12:05:57.419Z,1020.23
2019-01-04T12:06:57.409Z,1020.17
2019-01-04T12:08:57.386Z,1020.26